Time;durP1;ratioP1;P1;durP2;ratioP2;P2;SDS_P1;SDS_P2;PMS_P1;PMS_P2;Temp;Humidity;BMP_temperature;BMP_pressure;BME280_temperature;BME280_humidity;BME280_pressure;Samples;Min_cycle;Max_cycle;Signal;HPM_P1;HPM_P2
2022/10/17 00:00:39;;;;;;;14.30;3.77;;;;;;;4.27;100.00;101635.09;1608400;88;21063;-73
2022/10/17 00:03:06;;;;;;;6.87;3.70;;;;;;;4.26;100.00;101636.03;1665832;86;21045;-73
2022/10/17 00:05:40;;;;;;;9.20;4.10;;;;;;;4.26;100.00;101636.03;1665809;86;21109;-74
2022/10/17 00:08:06;;;;;;;8.15;3.72;;;;;;;4.26;100.00;101638.70;1665961;86;21034;-73
2022/10/17 00:10:35;;;;;;;7.03;3.80;;;;;;;4.26;100.00;101636.52;1665601;86;21077;-73
2022/10/17 00:13:02;;;;;;;6.80;3.57;;;;;;;4.26;100.00;101633.84;1665863;86;21061;-73
2022/10/17 00:15:30;;;;;;;8.10;3.47;;;;;;;4.28;100.00;101634.61;1665552;86;21082;-74
2022/10/17 00:17:58;;;;;;;8.23;4.03;;;;;;;4.28;100.00;101620.73;1665545;86;21105;-74
2022/10/17 00:20:25;;;;;;;5.50;3.57;;;;;;;4.30;100.00;101626.00;1711520;82;21081;-73
2022/10/17 00:22:53;;;;;;;6.50;3.50;;;;;;;4.29;100.00;101631.84;1753625;82;21488;-74
2022/10/17 00:25:20;;;;;;;5.73;3.37;;;;;;;4.28;100.00;101634.12;1753491;82;21018;-73
2022/10/17 00:27:47;;;;;;;7.33;3.70;;;;;;;4.27;100.00;101643.13;1753621;82;21030;-73
2022/10/17 00:30:17;;;;;;;6.10;3.40;;;;;;;4.27;100.00;101643.61;1753923;82;21022;-74
2022/10/17 00:32:44;;;;;;;6.60;3.60;;;;;;;4.26;100.00;101644.55;1753801;82;21018;-74
2022/10/17 00:35:10;;;;;;;6.63;3.73;;;;;;;4.25;100.00;101641.02;1753526;82;21010;-74
2022/10/17 00:37:39;;;;;;;5.60;3.73;;;;;;;4.23;100.00;101640.22;1753347;81;21042;-74
2022/10/17 00:40:08;;;;;;;5.43;3.50;;;;;;;4.24;100.00;101645.12;1753789;82;21030;-74
2022/10/17 00:42:34;;;;;;;10.30;4.10;;;;;;;4.25;100.00;101644.15;1753946;82;21038;-74
2022/10/17 00:45:16;;;;;;;7.70;4.00;;;;;;;4.25;100.00;101650.84;1753445;82;21089;-74
2022/10/17 00:47:45;;;;;;;11.97;4.43;;;;;;;4.27;100.00;101647.14;1753893;82;21035;-74
2022/10/17 00:50:12;;;;;;;11.03;4.77;;;;;;;4.29;100.00;101648.39;1753638;82;21120;-74
2022/10/17 00:52:39;;;;;;;8.97;4.57;;;;;;;4.29;100.00;101648.39;1753095;82;21166;-73
2022/10/17 00:55:23;;;;;;;10.37;5.00;;;;;;;4.28;100.00;101650.67;1768596;80;21016;-74
2022/10/17 00:57:50;;;;;;;10.73;4.77;;;;;;;4.28;100.00;101650.67;1693303;85;21122;-74
2022/10/17 01:00:18;;;;;;;11.70;5.00;;;;;;;4.27;100.00;101654.32;1690550;85;21508;-74
2022/10/17 01:02:47;;;;;;;10.60;4.87;;;;;;;4.25;100.00;101656.20;1683401;84;21026;-73
2022/10/17 01:05:14;;;;;;;12.47;5.43;;;;;;;4.22;100.00;101658.59;1683759;84;21504;-75
2022/10/17 01:07:42;;;;;;;13.47;5.70;;;;;;;4.20;100.00;101655.16;1683942;85;21065;-74
2022/10/17 01:10:10;;;;;;;9.33;4.53;;;;;;;4.17;100.00;101653.50;1683778;85;21002;-74
2022/10/17 01:12:49;;;;;;;12.57;4.77;;;;;;;4.17;100.00;101651.31;1683524;85;21050;-74
2022/10/17 01:15:37;;;;;;;8.47;4.47;;;;;;;4.13;100.00;101651.97;1680534;85;21071;-74
2022/10/17 01:18:29;;;;;;;9.27;4.20;;;;;;;4.13;100.00;101655.98;1683651;85;21022;-74
2022/10/17 01:21:27;;;;;;;9.47;4.43;;;;;;;4.11;100.00;101649.86;1667940;85;21470;-73
2022/10/17 01:24:11;;;;;;;11.23;4.83;;;;;;;4.08;100.00;101647.84;1701334;83;21068;-73
2022/10/17 01:27:09;;;;;;;14.83;4.90;;;;;;;4.06;100.00;101650.60;1701439;84;21084;-74
2022/10/17 01:30:21;;;;;;;14.03;5.40;;;;;;;4.03;100.00;101651.26;1677969;84;21523;-73
2022/10/17 01:32:58;;;;;;;11.57;4.90;;;;;;;3.98;100.00;101652.84;1701582;84;21006;-73
2022/10/17 01:35:33;;;;;;;11.37;5.20;;;;;;;3.90;100.00;101650.63;1673004;86;21101;-73
2022/10/17 01:38:08;;;;;;;13.27;5.40;;;;;;;3.85;100.00;101647.35;1667022;84;21504;-73
2022/10/17 01:40:48;;;;;;;16.73;5.70;;;;;;;3.82;100.00;101640.83;1650791;87;21092;-74
2022/10/17 01:43:27;;;;;;;11.03;5.00;;;;;;;3.80;100.00;101645.41;1653095;87;21076;-73
2022/10/17 01:46:10;;;;;;;12.33;5.27;;;;;;;3.78;100.00;101642.81;1642624;87;21074;-73
2022/10/17 01:48:39;;;;;;;14.17;5.33;;;;;;;3.77;100.00;101632.20;1640737;87;21054;-73
2022/10/17 01:51:17;;;;;;;16.27;5.80;;;;;;;3.74;100.00;101629.23;1640659;87;21074;-73
2022/10/17 01:53:49;;;;;;;16.63;6.37;;;;;;;3.73;100.00;101632.85;1657401;85;21594;-74
2022/10/17 01:56:16;;;;;;;23.87;7.50;;;;;;;3.71;100.00;101625.39;1647071;87;21021;-74
2022/10/17 01:58:50;;;;;;;22.37;7.30;;;;;;;3.69;100.00;101625.96;1648339;87;21076;-70
2022/10/17 02:01:17;;;;;;;22.20;7.70;;;;;;;3.67;100.00;101628.35;1645781;87;21609;-73
2022/10/17 02:03:45;;;;;;;21.87;8.43;;;;;;;3.64;100.00;101625.84;1646283;86;21092;-74
2022/10/17 02:06:11;;;;;;;21.50;7.37;;;;;;;3.61;100.00;101620.17;1646464;87;21081;-73
2022/10/17 02:08:47;;;;;;;16.70;6.80;;;;;;;3.59;100.00;101628.31;1646481;87;21097;-73
2022/10/17 02:11:20;;;;;;;15.00;6.27;;;;;;;3.58;100.00;101620.37;1646816;87;21037;-74
2022/10/17 02:14:11;;;;;;;19.87;7.47;;;;;;;3.56;100.00;101614.22;1646471;87;21066;-73
2022/10/17 02:17:08;;;;;;;20.90;7.90;;;;;;;3.55;100.00;101616.53;1646517;87;21549;-72
2022/10/17 02:20:17;;;;;;;20.30;7.90;;;;;;;3.55;100.00;101616.53;1588708;90;21113;-74
2022/10/17 02:22:55;;;;;;;17.57;7.07;;;;;;;3.54;100.00;101623.70;1561002;91;21082;-72
2022/10/17 02:25:42;;;;;;;18.97;6.60;;;;;;;3.52;100.00;101610.86;1567754;92;21075;-74
2022/10/17 02:28:32;;;;;;;15.70;6.10;;;;;;;3.53;100.00;101609.92;1551367;92;21099;-74
2022/10/17 02:31:19;;;;;;;19.47;7.13;;;;;;;3.55;100.00;101609.84;1538973;93;21559;-74
2022/10/17 02:33:54;;;;;;;17.67;6.80;;;;;;;3.54;100.00;101614.80;1495634;96;21153;-73
2022/10/17 02:36:28;;;;;;;18.73;7.77;;;;;;;3.51;100.00;101608.30;1483377;97;21107;-72
2022/10/17 02:38:54;;;;;;;16.27;6.67;;;;;;;3.48;100.00;101610.66;1452255;99;21083;-73
2022/10/17 02:41:21;;;;;;;16.53;6.33;;;;;;;3.46;100.00;101611.70;1455957;97;21127;-73
2022/10/17 02:43:48;;;;;;;15.77;6.57;;;;;;;3.44;100.00;101610.94;1497284;94;21076;-74
2022/10/17 02:46:19;;;;;;;23.13;8.30;;;;;;;3.41;100.00;101612.81;1542289;93;21108;-74
2022/10/17 02:48:53;;;;;;;26.43;9.57;;;;;;;3.39;100.00;101611.19;1522306;93;21129;-74
2022/10/17 02:51:28;;;;;;;23.53;8.47;;;;;;;3.36;100.00;101609.53;1541832;93;21661;-73
2022/10/17 02:54:14;;;;;;;23.13;7.63;;;;;;;3.35;100.00;101609.16;1556007;90;21077;-73
2022/10/17 02:56:49;;;;;;;23.67;7.60;;;;;;;3.34;100.00;101613.25;1532912;93;21107;-73
2022/10/17 02:59:19;;;;;;;22.33;8.43;;;;;;;3.32;100.00;101616.00;1463002;96;21640;-72
2022/10/17 03:01:50;;;;;;;16.80;6.90;;;;;;;3.30;100.00;101615.72;1464673;98;21131;-74
2022/10/17 03:04:17;;;;;;;15.97;6.23;;;;;;;3.25;100.00;101614.62;1471101;98;21119;-73
2022/10/17 03:06:44;;;;;;;18.07;6.07;;;;;;;3.22;100.00;101614.78;1487851;96;21130;-74
2022/10/17 03:09:13;;;;;;;12.93;5.67;;;;;;;3.19;100.00;101614.98;1499502;96;21134;-74
2022/10/17 03:11:41;;;;;;;15.27;5.70;;;;;;;3.15;100.00;101608.05;1499046;96;21106;-73
2022/10/17 03:14:09;;;;;;;12.80;5.07;;;;;;;3.13;100.00;101608.14;1489405;96;21733;-73
2022/10/17 03:16:36;;;;;;;14.13;5.83;;;;;;;3.11;100.00;101611.38;1545128;93;21526;-74
2022/10/17 03:19:03;;;;;;;28.77;9.07;;;;;;;3.09;100.00;101614.61;1544802;93;21111;-74
2022/10/17 03:21:32;;;;;;;43.87;14.70;;;;;;;3.07;100.00;101609.83;1545046;93;21157;-73
2022/10/17 03:23:59;;;;;;;41.97;13.93;;;;;;;3.08;100.00;101612.02;1544984;92;21080;-74
2022/10/17 03:26:28;;;;;;;34.97;10.60;;;;;;;3.07;100.00;101622.34;1544616;93;21144;-74
2022/10/17 03:28:55;;;;;;;20.43;7.73;;;;;;;3.04;100.00;101617.52;1571251;89;21070;-73
2022/10/17 03:31:22;;;;;;;21.13;7.37;;;;;;;3.02;100.00;101616.74;1578299;91;21070;-73
2022/10/17 03:33:49;;;;;;;29.03;9.37;;;;;;;3.01;100.00;101614.15;1578123;91;21118;-74
2022/10/17 03:36:18;;;;;;;28.83;10.37;;;;;;;3.00;100.00;101617.31;1578044;91;21077;-74
2022/10/17 03:38:45;;;;;;;28.60;9.50;;;;;;;2.98;100.00;101611.19;1552659;92;21077;-74
2022/10/17 03:41:12;;;;;;;25.50;8.37;;;;;;;2.96;100.00;101615.76;1578077;91;21114;-74
2022/10/17 03:43:40;;;;;;;20.90;7.43;;;;;;;2.94;100.00;101612.77;1578084;91;21097;-74
2022/10/17 03:46:07;;;;;;;19.03;7.20;;;;;;;2.92;100.00;101614.21;1578267;91;21086;-73
2022/10/17 03:48:34;;;;;;;14.10;5.87;;;;;;;2.89;100.00;101606.34;1578116;91;21118;-73
2022/10/17 07:09:58;;;;;;;24.43;12.45;;;;;;;11.13;100.00;101773.47;1832487;77;22777;-72
2022/10/17 07:12:26;;;;;;;44.27;21.57;;;;;;;11.40;100.00;101799.14;1793278;80;21044;-68
2022/10/17 07:14:53;;;;;;;47.50;25.85;;;;;;;11.62;100.00;101816.26;1788009;80;21517;-70
2022/10/17 07:17:26;;;;;;;79.45;48.63;;;;;;;11.87;100.00;101817.15;1787637;80;20995;-74
2022/10/17 07:19:53;;;;;;;154.23;83.20;;;;;;;12.07;100.00;101828.95;1787613;79;21069;-70
2022/10/17 07:22:20;;;;;;;34.48;17.42;;;;;;;12.24;100.00;101834.23;1787908;80;21097;-69
2022/10/17 07:24:48;;;;;;;20.77;9.38;;;;;;;12.43;100.00;101851.06;1787938;80;21038;-72
2022/10/17 07:27:17;;;;;;;18.45;7.62;;;;;;;12.56;100.00;101859.45;1662407;85;21102;-71
2022/10/17 07:29:45;;;;;;;19.45;6.85;;;;;;;12.75;100.00;101854.05;1640359;86;21102;-70
2022/10/17 07:32:13;;;;;;;17.77;7.17;;;;;;;12.96;100.00;101867.98;1655022;86;21151;-73
2022/10/17 07:34:41;;;;;;;19.35;6.60;;;;;;;13.11;100.00;101861.13;1666659;86;21041;-70
2022/10/17 07:37:09;;;;;;;16.77;6.72;;;;;;;13.24;100.00;101861.71;1655547;85;21084;-70
2022/10/17 07:39:38;;;;;;;20.23;6.00;;;;;;;13.45;100.00;101858.83;1660324;86;21866;-74
2022/10/17 07:42:08;;;;;;;17.92;6.20;;;;;;;13.65;100.00;101862.87;1657148;84;21046;-71
2022/10/17 07:44:35;;;;;;;17.27;5.58;;;;;;;13.74;100.00;101874.72;1653568;86;21592;-69
2022/10/17 07:47:03;;;;;;;17.10;5.87;;;;;;;13.80;100.00;101874.15;1655211;85;21092;-74
2022/10/17 07:49:31;;;;;;;18.37;5.90;;;;;;;13.87;100.00;101873.91;1652828;85;21093;-73
2022/10/17 07:51:58;;;;;;;18.20;6.92;;;;;;;14.10;100.00;101871.68;1662026;85;21238;-74
2022/10/17 07:54:25;;;;;;;39.35;19.25;;;;;;;14.10;100.00;101871.68;1661936;85;21028;-71
2022/10/17 07:56:52;;;;;;;28.75;13.90;;;;;;;14.18;100.00;101866.36;1656885;84;21044;-70
2022/10/17 07:59:19;;;;;;;17.80;6.45;;;;;;;14.33;100.00;101868.06;1671975;84;21090;-72
2022/10/17 08:01:46;;;;;;;11.50;5.03;;;;;;;14.49;100.00;101870.13;1652490;86;21577;-72
2022/10/17 08:07:09;;;;;;;14.93;6.30;;;;;;;14.75;100.00;101863.48;1622984;87;21420;-71
2022/10/17 08:09:36;;;;;;;12.18;5.25;;;;;;;14.94;100.00;101872.50;1639682;86;21084;-70
2022/10/17 08:12:03;;;;;;;17.00;5.25;;;;;;;15.04;100.00;101867.84;1624439;87;21140;-71
2022/10/17 08:14:31;;;;;;;17.00;6.10;;;;;;;15.17;100.00;101866.95;1590515;89;21099;-70
2022/10/17 08:16:58;;;;;;;43.08;24.12;;;;;;;15.33;100.00;101868.08;1598148;87;21067;-73
2022/10/17 08:19:25;;;;;;;34.70;18.92;;;;;;;15.44;100.00;101871.06;1628992;87;21025;-73
2022/10/17 08:21:53;;;;;;;22.48;9.38;;;;;;;15.53;100.00;101876.44;1624786;88;21538;-74
2022/10/17 08:24:20;;;;;;;20.60;9.73;;;;;;;15.60;100.00;101869.84;1668512;83;21101;-74
2022/10/17 08:26:48;;;;;;;21.95;7.15;;;;;;;15.73;100.00;101867.53;1658813;85;21038;-72
2022/10/17 08:29:15;;;;;;;14.35;5.78;;;;;;;15.92;100.00;101865.13;1667065;85;21030;-72
2022/10/17 08:31:41;;;;;;;16.50;5.83;;;;;;;16.12;100.00;101862.16;1665475;85;21049;-77
2022/10/17 08:34:09;;;;;;;20.40;7.45;;;;;;;16.31;100.00;101861.91;1652547;85;21525;-72
2022/10/17 08:36:36;;;;;;;16.37;6.92;;;;;;;16.42;100.00;101861.27;1662405;85;21013;-71
2022/10/17 08:39:03;;;;;;;8.43;4.28;;;;;;;16.51;100.00;101851.56;1665201;85;21052;-71
2022/10/17 08:41:44;;;;;;;5.47;3.50;;;;;;;16.61;100.00;101855.53;1650264;85;21016;-72
2022/10/17 08:44:38;;;;;;;8.50;3.33;;;;;;;16.73;100.00;101849.22;1653842;85;21065;-71
2022/10/17 08:47:12;;;;;;;6.37;3.12;;;;;;;16.76;100.00;101860.34;1668321;85;21055;-70
2022/10/17 08:49:54;;;;;;;5.40;3.20;;;;;;;16.68;100.00;101861.19;1648011;85;21082;-72
2022/10/17 08:52:55;;;;;;;5.78;3.20;;;;;;;16.53;100.00;101859.59;1540981;92;21640;-70
2022/10/17 08:55:36;;;;;;;5.25;2.52;;;;;;;16.51;100.00;101855.66;1532250;92;21100;-71
2022/10/17 08:58:22;;;;;;;5.40;3.20;;;;;;;16.55;100.00;101852.59;1561759;91;21047;-79
2022/10/17 09:01:16;;;;;;;5.35;3.15;;;;;;;16.59;100.00;101855.33;1548499;90;21068;-78
2022/10/17 09:04:23;;;;;;;5.50;3.10;;;;;;;16.59;100.00;101849.38;1544788;90;21020;-80
2022/10/17 09:07:02;;;;;;;5.75;2.92;;;;;;;16.59;100.00;101841.67;1545632;91;21593;-83
2022/10/17 09:10:14;;;;;;;7.35;3.40;;;;;;;16.55;100.00;101843.89;1539525;91;21705;-81
2022/10/17 09:13:20;;;;;;;7.60;3.50;;;;;;;16.56;100.00;101837.94;1483670;96;21130;-80
2022/10/17 09:16:19;;;;;;;10.43;3.40;;;;;;;16.65;100.00;101837.77;1511467;92;21102;-79
2022/10/17 09:19:01;;;;;;;10.93;3.45;;;;;;;16.76;100.00;101833.87;1540760;93;21111;-77
2022/10/17 09:21:45;;;;;;;12.45;4.10;;;;;;;16.82;100.00;101835.06;1496969;94;21147;-77
2022/10/17 09:24:39;;;;;;;16.32;4.70;;;;;;;16.81;100.00;101838.84;1489710;95;21107;-82
2022/10/17 09:27:23;;;;;;;7.97;3.22;;;;;;;16.91;100.00;101842.80;1486221;95;21118;-73
2022/10/17 09:29:54;;;;;;;6.92;3.52;;;;;;;16.99;100.00;101842.81;1493368;95;21103;-72
2022/10/17 09:32:24;;;;;;;10.80;3.37;;;;;;;17.02;100.00;101845.22;1489145;95;21102;-76
2022/10/17 09:34:53;;;;;;;13.45;4.45;;;;;;;17.15;100.00;101843.34;1484529;95;21175;-73
2022/10/17 09:37:24;;;;;;;8.13;4.20;;;;;;;17.34;100.00;101838.89;1493143;94;21134;-73
2022/10/17 09:39:51;;;;;;;8.18;3.45;;;;;;;17.50;100.00;101836.66;1481928;94;21173;-71
2022/10/17 09:42:20;;;;;;;10.20;3.72;;;;;;;17.62;100.00;101833.90;1504796;94;21140;-74
2022/10/17 09:45:09;;;;;;;8.13;3.65;;;;;;;17.72;100.00;101842.42;1493174;96;21148;-75
2022/10/17 09:47:42;;;;;;;10.35;3.80;;;;;;;17.85;100.00;101837.27;1482348;94;21597;-75
2022/10/17 09:50:24;;;;;;;9.83;3.90;;;;;;;18.05;100.00;101827.32;1499347;94;21110;-72
2022/10/17 09:52:51;;;;;;;7.15;3.27;;;;;;;18.24;100.00;101825.53;1494476;94;21153;-72
2022/10/17 09:55:44;;;;;;;10.10;3.87;;;;;;;18.34;100.00;101816.58;1507461;93;21089;-78
2022/10/17 09:58:11;;;;;;;9.23;3.62;;;;;;;18.47;100.00;101816.48;1517823;92;21167;-79
2022/10/17 10:00:46;;;;;;;10.63;3.95;;;;;;;18.60;100.00;101811.28;1542802;91;21076;-78
2022/10/17 10:03:24;;;;;;;6.95;3.52;;;;;;;18.74;100.00;101812.39;1553120;91;21073;-75
2022/10/17 10:06:15;;;;;;;10.50;4.00;;;;;;;18.83;100.00;101805.00;1551887;92;21097;-80
2022/10/17 10:08:53;;;;;;;7.83;3.70;;;;;;;18.92;100.00;101805.27;1559821;89;21106;-83
2022/10/17 10:11:25;;;;;;;15.23;7.45;;;;;;;19.03;100.00;101796.59;1562242;90;21070;-79
2022/10/17 10:13:55;;;;;;;10.40;4.58;;;;;;;19.05;100.00;101796.42;1559491;89;21212;-74
2022/10/17 10:16:35;;;;;;;9.48;4.03;;;;;;;19.08;100.00;101787.83;1563043;90;21132;-70
2022/10/17 10:19:03;;;;;;;8.45;3.65;;;;;;;19.07;100.00;101793.84;1540706;92;21013;-71
2022/10/17 10:21:30;;;;;;;6.00;3.87;;;;;;;19.10;100.00;101787.97;1512709;87;21094;-74
2022/10/17 10:24:13;;;;;;;26.37;11.70;;;;;;;19.19;100.00;101786.00;1695965;83;20981;-71
2022/10/17 10:26:46;;;;;;;8.85;4.40;;;;;;;19.25;100.00;101792.14;1686921;85;21543;-70
2022/10/17 10:29:21;;;;;;;6.62;3.30;;;;;;;19.29;100.00;101790.72;1689596;83;21034;-77
2022/10/17 10:31:56;;;;;;;9.05;3.80;;;;;;;19.31;100.00;101789.16;1656655;85;21137;-80
2022/10/17 10:34:28;;;;;;;10.88;4.25;;;;;;;19.32;100.00;101793.63;1732446;81;21042;-81
2022/10/17 10:37:04;;;;;;;8.85;3.95;;;;;;;19.21;100.00;101796.30;1772866;81;21071;-76
2022/10/17 10:39:54;;;;;;;7.00;3.45;;;;;;;19.19;100.00;101797.50;1772748;81;21082;-78
2022/10/17 10:42:29;;;;;;;5.17;2.90;;;;;;;19.29;100.00;101799.47;1745366;81;20991;-71
2022/10/17 10:45:04;;;;;;;6.42;3.30;;;;;;;19.40;100.00;101791.30;1745964;81;21153;-70
2022/10/17 10:47:31;;;;;;;5.25;3.12;;;;;;;19.45;100.00;101796.56;1627507;88;21152;-72
2022/10/17 10:50:23;;;;;;;4.78;2.87;;;;;;;19.51;100.00;101799.94;1614869;88;21108;-77
2022/10/17 10:53:04;;;;;;;7.37;3.35;;;;;;;19.60;100.00;101792.98;1557588;92;21126;-72
2022/10/17 10:55:41;;;;;;;6.80;3.37;;;;;;;19.69;100.00;101787.22;1558320;91;21183;-70
2022/10/17 10:58:13;;;;;;;9.65;4.37;;;;;;;19.84;100.00;101790.52;1567045;90;21519;-69
2022/10/17 11:00:40;;;;;;;15.25;6.00;;;;;;;19.97;100.00;101789.84;1438716;99;21204;-80
2022/10/17 11:03:18;;;;;;;9.63;4.53;;;;;;;20.06;99.34;101784.06;1437334;99;21591;-76
2022/10/17 11:05:55;;;;;;;8.08;3.83;;;;;;;20.01;96.59;101785.66;1435466;99;21622;-75
2022/10/17 11:08:34;;;;;;;5.90;3.20;;;;;;;19.97;98.13;101789.30;1423624;98;21118;-76
2022/10/17 11:11:22;;;;;;;11.03;4.00;;;;;;;19.98;98.30;101789.65;1422549;100;21119;-79
2022/10/17 11:14:14;;;;;;;7.33;3.17;;;;;;;19.94;95.98;101791.09;1367955;104;21205;-77
2022/10/17 11:17:08;;;;;;;6.33;3.20;;;;;;;19.79;94.12;101787.48;1346438;106;21263;-82
2022/10/17 11:19:46;;;;;;;10.43;4.10;;;;;;;19.73;96.07;101780.84;1354722;105;21624;-73
2022/10/17 11:22:20;;;;;;;8.68;4.60;;;;;;;19.77;97.00;101773.95;1361335;105;21122;-73
2022/10/17 11:25:00;;;;;;;8.55;4.10;;;;;;;19.77;98.04;101771.20;1348258;105;21239;-72
2022/10/17 11:27:28;;;;;;;6.70;3.40;;;;;;;19.80;96.44;101766.72;1359365;104;21186;-71
2022/10/17 11:29:55;;;;;;;6.17;3.40;;;;;;;19.77;95.12;101767.62;1369327;104;21184;-72
2022/10/17 11:32:37;;;;;;;10.25;4.03;;;;;;;19.74;95.21;101766.09;1361690;104;21176;-69
2022/10/17 11:35:24;;;;;;;11.90;5.55;;;;;;;19.63;92.50;101764.64;1381797;104;21590;-70
2022/10/17 11:38:17;;;;;;;8.90;3.37;;;;;;;19.56;94.86;101766.97;1328447;108;21252;-72
2022/10/17 11:40:49;;;;;;;5.42;3.20;;;;;;;19.47;94.26;101763.45;1350363;106;21200;-74
2022/10/17 11:43:30;;;;;;;8.95;3.52;;;;;;;19.44;96.25;101756.97;1351663;103;21194;-72
2022/10/17 11:46:04;;;;;;;6.42;3.72;;;;;;;19.39;95.08;101754.80;1368130;105;21180;-74
2022/10/17 11:48:36;;;;;;;27.30;15.15;;;;;;;19.26;94.57;101751.31;1334028;106;21211;-73
2022/10/17 11:51:12;;;;;;;12.95;5.53;;;;;;;19.22;95.97;101752.73;1324820;107;21196;-72
2022/10/17 11:54:00;;;;;;;9.40;4.55;;;;;;;19.24;97.85;101755.30;1324606;107;21227;-72
2022/10/17 11:56:59;;;;;;;7.50;3.75;;;;;;;19.34;100.00;101751.24;1324046;107;21643;-71
2022/10/17 12:00:08;;;;;;;7.70;4.47;;;;;;;19.43;99.75;101764.35;1339831;107;21157;-73
2022/10/17 12:02:43;;;;;;;6.50;3.45;;;;;;;19.49;98.63;101758.09;1366367;102;21713;-72
2022/10/17 12:05:22;;;;;;;7.08;3.37;;;;;;;19.47;98.78;101759.34;1409005;99;21761;-70
2022/10/17 12:08:04;;;;;;;8.90;3.70;;;;;;;19.38;95.46;101765.44;1449937;97;21179;-71
2022/10/17 12:11:13;;;;;;;8.83;4.20;;;;;;;19.32;95.41;101767.04;1352555;105;21144;-69
2022/10/17 12:13:50;;;;;;;10.48;3.90;;;;;;;19.23;94.39;101776.89;1347624;106;21235;-69
2022/10/17 12:16:23;;;;;;;11.55;5.35;;;;;;;19.16;95.58;101786.40;1396397;103;21680;-73
2022/10/17 12:19:05;;;;;;;8.30;3.72;;;;;;;19.24;98.38;101782.72;1399658;101;21154;-71
2022/10/17 12:22:21;;;;;;;15.72;5.35;;;;;;;19.29;98.86;101785.23;1362419;105;21168;-70
2022/10/17 12:25:01;;;;;;;16.32;6.08;;;;;;;19.36;98.08;101778.48;1336934;103;21214;-71
2022/10/17 12:27:42;;;;;;;10.32;5.00;;;;;;;19.43;97.47;101782.71;1302979;110;21189;-70
2022/10/17 12:30:22;;;;;;;5.92;3.20;;;;;;;19.48;97.20;101786.59;1302371;110;21249;-70
2022/10/17 12:33:05;;;;;;;6.05;3.20;;;;;;;19.53;93.85;101777.81;1298832;109;21259;-70
2022/10/17 12:35:34;;;;;;;5.65;3.12;;;;;;;19.52;92.46;101776.94;1299308;109;21207;-71
2022/10/17 12:38:20;;;;;;;8.05;3.67;;;;;;;19.56;94.10;101773.83;1318650;109;21225;-70
2022/10/17 12:40:52;;;;;;;7.92;3.30;;;;;;;19.63;96.54;101767.38;1318550;109;21234;-69
2022/10/17 12:43:34;;;;;;;6.78;3.50;;;;;;;19.81;96.75;101771.14;1343342;106;21205;-70
2022/10/17 12:46:06;;;;;;;4.78;2.83;;;;;;;19.95;94.19;101763.95;1350304;106;21704;-69
2022/10/17 12:48:39;;;;;;;6.37;2.80;;;;;;;20.09;92.63;101765.81;1339838;106;21129;-71
2022/10/17 12:51:18;;;;;;;6.78;3.25;;;;;;;20.20;92.40;101771.86;1354683;106;21222;-71
2022/10/17 12:53:54;;;;;;;43.45;30.40;;;;;;;20.30;91.15;101766.91;1367740;101;21672;-69
2022/10/17 12:56:32;;;;;;;20.57;7.55;;;;;;;20.44;88.19;101764.64;1413864;100;21700;-70
2022/10/17 12:58:59;;;;;;;10.48;4.45;;;;;;;20.58;87.60;101764.80;1371301;103;21166;-69
2022/10/17 13:01:31;;;;;;;8.43;3.65;;;;;;;20.72;85.48;101769.41;1393266;103;21183;-72
2022/10/17 13:04:01;;;;;;;6.50;3.40;;;;;;;20.78;84.68;101766.39;1392849;103;21670;-73
2022/10/17 13:06:29;;;;;;;12.73;3.62;;;;;;;20.86;82.10;101762.98;1414757;100;21154;-72
2022/10/17 13:09:06;;;;;;;9.50;3.52;;;;;;;21.01;80.99;101762.05;1447090;99;21112;-70
2022/10/17 13:11:35;;;;;;;14.38;3.75;;;;;;;21.15;77.57;101757.52;1387400;103;21679;-70
2022/10/17 13:14:04;;;;;;;11.97;3.47;;;;;;;21.15;75.07;101754.77;1398408;101;21174;-71
2022/10/17 13:16:41;;;;;;;11.25;3.42;;;;;;;21.28;76.38;101760.89;1402630;100;21590;-70
2022/10/17 13:19:17;;;;;;;8.88;3.50;;;;;;;21.46;74.34;101750.27;1402829;100;21136;-67
2022/10/17 13:22:00;;;;;;;7.78;3.25;;;;;;;21.49;73.15;101738.84;1383376;104;21138;-71
2022/10/17 13:24:35;;;;;;;9.90;3.62;;;;;;;21.56;72.82;101736.14;1367272;105;21627;-69
2022/10/17 13:27:04;;;;;;;8.48;3.22;;;;;;;21.58;71.45;101725.77;1364924;105;21171;-70
2022/10/17 13:29:31;;;;;;;9.83;3.70;;;;;;;21.54;70.78;101725.86;1365140;105;21636;-69
2022/10/17 13:32:00;;;;;;;8.35;3.55;;;;;;;21.52;71.92;101721.09;1365033;105;21121;-71
2022/10/17 13:34:27;;;;;;;9.80;3.65;;;;;;;21.48;73.25;101722.02;1366976;103;21603;-69
2022/10/17 13:37:00;;;;;;;10.85;3.85;;;;;;;21.39;74.42;101721.84;1435330;99;21175;-70
2022/10/17 13:39:35;;;;;;;11.78;4.17;;;;;;;21.09;70.60;101729.42;1452093;99;21086;-69
2022/10/17 13:42:02;;;;;;;22.30;10.85;;;;;;;20.56;70.62;101730.64;1450602;99;21830;-71
2022/10/17 13:44:32;;;;;;;10.10;4.70;;;;;;;20.12;72.19;101730.80;1429265;99;21138;-69
2022/10/17 13:46:59;;;;;;;14.58;5.20;;;;;;;19.84;75.05;101736.46;1405929;102;21141;-69
2022/10/17 13:49:36;;;;;;;11.68;4.25;;;;;;;19.58;77.44;101732.80;1428014;100;21083;-70
2022/10/17 13:52:04;;;;;;;10.28;3.95;;;;;;;19.31;79.28;101737.90;1345727;107;21161;-70
2022/10/17 13:54:40;;;;;;;9.65;3.98;;;;;;;18.96;83.63;101739.44;1365619;105;21186;-68
2022/10/17 13:57:25;;;;;;;8.85;4.05;;;;;;;18.61;85.95;101743.14;1365154;105;21298;-69
2022/10/17 14:00:05;;;;;;;11.33;4.58;;;;;;;18.25;90.35;101746.45;1397830;102;21112;-70
2022/10/17 14:02:34;;;;;;;8.43;3.80;;;;;;;17.90;94.48;101741.86;1449807;98;21131;-68
2022/10/17 14:05:11;;;;;;;8.28;4.05;;;;;;;17.50;95.53;101749.14;1419179;100;21202;-71
2022/10/17 14:07:42;;;;;;;9.08;4.17;;;;;;;17.16;98.39;101752.13;1432337;98;21113;-70
2022/10/17 14:10:23;;;;;;;11.45;4.20;;;;;;;16.83;100.00;101746.63;1469453;96;21558;-70
2022/10/17 14:12:51;;;;;;;12.60;4.60;;;;;;;16.50;100.00;101741.14;1472992;96;21675;-69
2022/10/17 14:15:21;;;;;;;16.23;6.08;;;;;;;16.19;100.00;101747.75;1473452;96;21213;-70
2022/10/17 14:17:58;;;;;;;49.38;32.30;;;;;;;15.92;100.00;101754.65;1541666;89;21053;-68
2022/10/17 14:20:27;;;;;;;23.12;10.70;;;;;;;15.67;100.00;101749.56;1591802;90;21097;-69
2022/10/17 14:22:55;;;;;;;17.05;6.37;;;;;;;15.43;100.00;101745.34;1593017;90;21237;-70
2022/10/17 14:25:38;;;;;;;14.63;5.65;;;;;;;15.16;100.00;101737.69;1593129;90;21089;-70
2022/10/17 14:28:14;;;;;;;13.28;5.65;;;;;;;14.90;100.00;101739.02;1542247;93;21135;-71
2022/10/17 14:30:48;;;;;;;14.55;5.28;;;;;;;14.64;100.00;101738.45;1573651;91;21146;-69
2022/10/17 14:33:29;;;;;;;20.45;6.17;;;;;;;14.43;100.00;101734.67;1573771;91;21088;-69
2022/10/17 14:35:58;;;;;;;17.30;5.95;;;;;;;14.21;100.00;101737.31;1527612;93;21083;-70
2022/10/17 14:38:25;;;;;;;13.95;5.80;;;;;;;13.98;100.00;101740.45;1512993;94;21073;-69
2022/10/17 14:41:03;;;;;;;14.25;5.72;;;;;;;13.77;100.00;101740.70;1525146;94;21070;-69
2022/10/17 14:43:30;;;;;;;14.70;5.08;;;;;;;13.60;100.00;101741.53;1525054;93;21039;-72
2022/10/17 14:45:58;;;;;;;14.55;5.37;;;;;;;13.40;100.00;101750.23;1524734;94;21121;-69
2022/10/17 14:48:27;;;;;;;13.43;5.22;;;;;;;13.22;100.00;101752.31;1525430;94;21120;-70
2022/10/17 14:51:17;;;;;;;15.78;5.50;;;;;;;13.06;100.00;101758.86;1506760;95;21106;-70
2022/10/17 14:54:05;;;;;;;27.82;11.90;;;;;;;12.91;100.00;101770.69;1525430;94;21587;-70
2022/10/17 14:56:39;;;;;;;137.47;77.75;;;;;;;12.72;100.00;101767.47;1525359;91;21611;-68
2022/10/17 14:59:06;;;;;;;74.70;44.15;;;;;;;12.56;100.00;101774.81;1449760;98;21101;-71
2022/10/17 15:01:34;;;;;;;76.95;40.73;;;;;;;12.40;100.00;101775.88;1467625;98;21101;-72
2022/10/17 15:04:00;;;;;;;33.90;16.27;;;;;;;12.25;100.00;101780.83;1467794;98;21045;-70
2022/10/17 15:06:32;;;;;;;23.67;10.15;;;;;;;12.08;100.00;101787.30;1467459;98;21105;-74
2022/10/17 15:09:01;;;;;;;24.20;8.93;;;;;;;11.95;100.00;101798.39;1473768;96;21659;-73
2022/10/17 15:11:27;;;;;;;18.82;7.78;;;;;;;11.80;100.00;101797.52;1469222;96;21158;-73